createdAt,value
2022-12-25T00:01:11.394Z,98756.34
2022-12-25T00:04:14.466Z,98810.22
2022-12-25T00:07:17.339Z,98822.63
2022-12-25T00:10:20.473Z,98814.59
2022-12-25T00:13:23.021Z,98809.28
2022-12-25T00:16:26.845Z,98803.13
2022-12-25T00:19:29.643Z,98811.09
2022-12-25T00:22:32.567Z,98803.97
2022-12-25T00:25:35.226Z,98827.84
2022-12-25T00:28:38.568Z,98827.91
2022-12-25T00:31:41.382Z,98830.56
2022-12-25T00:34:44.240Z,98835.87
2022-12-25T00:37:46.876Z,98827.00
2022-12-25T00:40:49.884Z,98831.50
2022-12-25T00:43:52.453Z,98836.00
2022-12-25T00:46:55.308Z,98846.72
2022-12-25T00:49:57.875Z,98845.88
2022-12-25T00:53:00.615Z,98841.41
2022-12-25T00:56:05.567Z,98837.03
2022-12-25T00:59:08.477Z,98841.44
2022-12-25T01:02:30.285Z,98850.34
2022-12-25T01:05:33.330Z,98853.88
2022-12-25T01:08:37.987Z,98854.72
2022-12-25T01:11:40.901Z,98856.53
2022-12-25T01:14:44.017Z,98866.31
2022-12-25T01:17:46.973Z,98879.63
2022-12-25T01:20:49.597Z,98870.78
2022-12-25T01:23:53.684Z,98869.91
2022-12-25T01:26:56.373Z,98874.38
2022-12-25T01:29:59.504Z,98869.94
2022-12-25T01:33:02.070Z,98877.91
2022-12-25T01:36:12.585Z,98878.78
2022-12-25T01:39:15.380Z,98883.22
2022-12-25T01:42:21.936Z,98879.66
2022-12-25T01:45:36.611Z,98889.41
2022-12-25T01:48:40.293Z,98885.03
2022-12-25T01:51:50.430Z,98898.28
2022-12-25T01:54:56.436Z,98900.94
2022-12-25T01:57:58.984Z,98901.81
2022-12-25T02:01:02.052Z,98884.06
2022-12-25T02:04:09.528Z,98874.31
2022-12-25T02:07:22.211Z,98889.44
2022-12-25T02:10:25.513Z,98901.88
2022-12-25T02:13:29.123Z,98891.25
2022-12-25T02:16:35.356Z,98898.34
2022-12-25T02:20:10.220Z,98887.78
2022-12-25T02:23:40.972Z,98893.97
2022-12-25T02:27:03.295Z,98901.06
2022-12-25T02:30:10.579Z,98901.94
2022-12-25T02:33:40.257Z,98906.38
2022-12-25T02:36:58.381Z,98911.72
2022-12-25T02:40:17.479Z,98906.41
2022-12-25T02:43:48.176Z,98909.88
2022-12-25T02:47:10.254Z,98912.50
2022-12-25T02:50:33.535Z,98911.66
2022-12-25T02:53:55.276Z,98923.16
2022-12-25T02:57:18.800Z,98916.91
2022-12-25T03:00:40.191Z,98910.72
2022-12-25T03:04:03.436Z,98916.97
2022-12-25T03:07:17.417Z,98926.78
2022-12-25T03:10:39.283Z,98934.81
2022-12-25T03:13:43.545Z,98928.56
2022-12-25T03:16:51.267Z,98928.59
2022-12-25T03:20:22.889Z,98932.16
2022-12-25T03:23:48.182Z,98931.28
2022-12-25T03:26:56.896Z,98930.34
2022-12-25T03:30:18.800Z,98931.22
2022-12-25T03:33:50.486Z,98941.87
2022-12-25T03:37:22.771Z,98943.66
2022-12-25T03:40:53.196Z,98945.47
2022-12-25T03:44:22.469Z,98957.94
2022-12-25T03:47:35.196Z,98959.75
2022-12-25T03:51:13.384Z,98963.28
2022-12-25T03:54:38.059Z,98961.53
2022-12-25T03:58:00.241Z,98938.50
2022-12-25T04:01:21.436Z,98942.03
2022-12-25T04:04:43.199Z,98958.03
2022-12-25T04:08:04.738Z,98964.25
2022-12-25T04:11:26.257Z,98959.84
2022-12-25T04:14:47.458Z,98950.13
2022-12-25T04:18:11.188Z,98959.84
2022-12-25T04:21:32.807Z,98938.62
2022-12-25T04:24:54.280Z,98952.81
2022-12-25T04:28:20.573Z,98959.91
2022-12-25T04:31:41.863Z,98950.19
2022-12-25T04:35:03.436Z,98959.06
2022-12-25T04:38:06.481Z,98959.94
2022-12-25T04:41:11.783Z,98958.16
2022-12-25T04:44:14.672Z,98962.59
2022-12-25T04:47:17.279Z,98958.19
2022-12-25T04:50:20.165Z,98953.75
2022-12-25T04:53:23.065Z,98961.72
2022-12-25T04:56:25.858Z,98957.34
2022-12-25T04:59:28.586Z,98957.34
2022-12-25T05:02:31.968Z,98966.22
2022-12-25T05:05:34.724Z,98957.41
2022-12-25T05:08:37.751Z,98978.63
2022-12-25T05:11:40.519Z,98980.41
2022-12-25T05:14:43.423Z,98983.06
2022-12-25T05:17:45.980Z,98983.09
2022-12-25T05:20:53.648Z,98984.84
2022-12-25T05:23:56.254Z,98990.19
2022-12-25T05:26:59.140Z,98992.84
2022-12-25T05:30:01.922Z,98994.66
2022-12-25T05:33:05.157Z,98999.09
2022-12-25T05:36:09.214Z,98996.44
2022-12-25T05:39:12.063Z,99000.88
2022-12-25T05:42:14.759Z,98998.25
2022-12-25T05:45:17.568Z,99009.75
2022-12-25T05:48:20.343Z,99009.75
2022-12-25T05:51:23.536Z,99002.69
2022-12-25T05:54:26.089Z,99004.44
2022-12-25T05:57:29.533Z,99015.06
2022-12-25T06:00:32.273Z,99022.19
2022-12-25T06:03:35.853Z,99026.63
2022-12-25T06:06:38.336Z,99023.97
2022-12-25T06:09:41.413Z,99034.56
2022-12-25T06:12:43.916Z,99022.16
2022-12-25T06:15:46.797Z,99034.56
2022-12-25T06:18:54.213Z,99030.12
2022-12-25T06:21:57.126Z,99031.03
2022-12-25T06:24:59.814Z,99023.94
2022-12-25T06:28:02.883Z,99023.94
2022-12-25T06:31:07.598Z,99021.31
2022-12-25T06:34:10.738Z,99030.16
2022-12-25T06:37:13.327Z,99037.25
2022-12-25T06:40:16.431Z,99037.22
2022-12-25T06:43:19.105Z,99044.31
2022-12-25T06:46:23.042Z,99038.97
2022-12-25T06:49:25.898Z,99039.00
2022-12-25T06:52:28.632Z,99042.53
2022-12-25T06:55:31.148Z,99045.19
2022-12-25T06:58:34.091Z,99039.88
2022-12-25T07:01:47.126Z,99048.72
2022-12-25T07:04:50.219Z,99050.47
2022-12-25T07:07:52.922Z,99056.69
2022-12-25T07:10:56.020Z,99054.00
2022-12-25T07:13:58.974Z,99056.66
2022-12-25T07:17:02.452Z,99061.97
2022-12-25T07:20:07.027Z,99061.94
2022-12-25T07:23:09.933Z,99067.25
2022-12-25T07:26:13.055Z,99078.72
2022-12-25T07:29:16.475Z,99076.97
2022-12-25T07:32:19.540Z,99092.00
2022-12-25T07:35:23.030Z,99098.19
2022-12-25T07:38:25.679Z,99099.97
2022-12-25T07:41:28.584Z,99091.12
2022-12-25T07:44:31.512Z,99106.19
2022-12-25T07:47:34.376Z,99105.31
2022-12-25T07:50:37.236Z,99120.19
2022-12-25T07:53:40.773Z,99116.66
2022-12-25T07:56:43.330Z,99125.53
2022-12-25T07:59:46.243Z,99122.84
2022-12-25T08:02:50.206Z,99131.72
2022-12-25T08:05:53.185Z,99131.72
2022-12-25T08:08:57.175Z,99137.91
2022-12-25T08:12:00.264Z,99138.78
2022-12-25T08:15:02.739Z,99135.22
2022-12-25T08:18:05.599Z,99139.63
2022-12-25T08:21:13.281Z,99152.91
2022-12-25T08:24:16.202Z,99157.28
2022-12-25T08:27:18.721Z,99159.88
2022-12-25T08:30:21.554Z,99167.75
2022-12-25T08:33:24.197Z,99157.88
2022-12-25T08:36:27.513Z,99164.91
2022-12-25T08:39:30.263Z,99169.19
2022-12-25T08:42:33.053Z,99164.53
2022-12-25T08:45:35.646Z,99170.47
2022-12-25T08:48:39.307Z,99181.06
2022-12-25T08:51:44.649Z,99171.22
2022-12-25T08:54:47.499Z,99176.31
2022-12-25T08:57:52.714Z,99182.38
2022-12-25T09:00:56.356Z,99175.00
2022-12-25T09:03:59.534Z,99173.19
2022-12-25T09:07:02.731Z,99187.97
2022-12-25T09:10:05.840Z,99179.00
2022-12-25T09:13:09.988Z,99173.78
2022-12-25T09:16:16.356Z,99181.81
2022-12-25T09:19:19.716Z,99174.22
2022-12-25T09:22:22.278Z,99178.19
2022-12-25T09:25:25.273Z,99177.84
2022-12-25T09:28:28.279Z,99172.16
2022-12-25T09:31:31.258Z,99173.69
2022-12-25T09:34:34.595Z,99176.00
2022-12-25T09:37:37.944Z,99189.06
2022-12-25T09:40:41.401Z,99189.44
2022-12-25T09:43:54.647Z,99183.31
2022-12-25T09:47:06.021Z,99189.16
2022-12-25T09:50:21.126Z,99182.66
2022-12-25T09:53:28.846Z,99139.09
2022-12-25T09:56:32.621Z,99179.25
2022-12-25T09:59:35.232Z,99175.75
2022-12-25T10:02:47.555Z,99185.75
2022-12-25T10:06:19.672Z,99188.06
2022-12-25T10:09:25.254Z,99188.06
2022-12-25T10:12:53.721Z,99186.41
2022-12-25T10:16:12.610Z,99182.16
2022-12-25T10:19:53.782Z,99180.84
2022-12-25T10:23:00.555Z,99176.75
2022-12-25T10:26:04.489Z,99185.22
2022-12-25T10:29:14.127Z,99191.22
2022-12-25T10:32:17.144Z,99186.50
2022-12-25T10:35:22.424Z,99174.78
2022-12-25T10:38:25.523Z,99181.31
2022-12-25T10:42:07.145Z,99173.97
2022-12-25T10:45:10.479Z,99178.81
2022-12-25T10:48:23.153Z,99171.22
2022-12-25T10:51:37.866Z,99178.31
2022-12-25T10:54:40.490Z,99179.34
2022-12-25T10:57:47.264Z,99186.97
2022-12-25T11:01:08.238Z,99179.84
2022-12-25T11:04:21.822Z,99195.28
2022-12-25T11:07:25.660Z,99193.13
2022-12-25T11:10:37.356Z,99186.37
2022-12-25T11:13:48.843Z,99179.38
2022-12-25T11:16:51.745Z,99172.56
2022-12-25T11:20:01.267Z,99184.13
2022-12-25T11:23:10.604Z,99171.31
2022-12-25T11:26:13.406Z,99157.88
2022-12-25T11:29:25.478Z,99164.97
2022-12-25T11:32:38.226Z,99160.03
2022-12-25T11:35:49.131Z,99156.09
2022-12-25T11:38:52.255Z,99159.88
2022-12-25T11:42:03.887Z,99160.28
2022-12-25T11:45:17.247Z,99160.50
2022-12-25T11:48:32.286Z,99164.41
2022-12-25T11:51:37.564Z,99158.38
2022-12-25T11:54:52.062Z,99161.41
2022-12-25T11:58:01.613Z,99157.56
2022-12-25T12:01:09.179Z,99161.44
2022-12-25T12:04:36.918Z,99161.53
2022-12-25T12:07:52.344Z,99154.47
2022-12-25T12:11:18.720Z,99143.41
2022-12-25T12:14:21.209Z,99157.00
2022-12-25T12:17:24.287Z,99145.38
2022-12-25T12:20:30.118Z,99148.25
2022-12-25T12:23:54.359Z,99142.63
2022-12-25T12:27:06.072Z,99151.50
2022-12-25T12:30:24.200Z,99146.41
2022-12-25T12:33:31.127Z,99148.91
2022-12-25T12:36:36.576Z,99157.22
2022-12-25T12:39:40.709Z,99145.00
2022-12-25T12:42:50.386Z,99150.22
2022-12-25T12:46:13.231Z,99153.88
2022-12-25T12:49:22.453Z,99143.94
2022-12-25T12:52:35.594Z,99155.94
2022-12-25T12:55:38.380Z,99156.22
2022-12-25T12:58:50.038Z,99149.25
2022-12-25T13:02:08.379Z,99158.53
2022-12-25T13:05:34.466Z,99148.84
2022-12-25T13:08:45.865Z,99147.19
2022-12-25T13:11:49.364Z,99113.28
2022-12-25T13:14:52.766Z,99141.03
2022-12-25T13:17:58.063Z,99156.19
2022-12-25T13:21:02.764Z,99156.97
2022-12-25T13:24:20.572Z,99158.81
2022-12-25T13:27:26.412Z,99103.75
2022-12-25T13:30:29.220Z,99147.37
2022-12-25T13:33:32.196Z,99152.53
2022-12-25T13:36:38.620Z,99165.63
2022-12-25T13:40:01.620Z,99148.44
2022-12-25T13:43:05.161Z,99157.94
2022-12-25T13:46:08.072Z,99168.25
2022-12-25T13:49:19.513Z,99159.94
2022-12-25T13:52:34.145Z,99170.22
2022-12-25T13:55:36.983Z,99170.69
2022-12-25T13:58:40.145Z,99173.78
2022-12-25T14:01:43.896Z,99164.16
2022-12-25T14:04:49.451Z,99158.12
2022-12-25T14:07:53.560Z,99165.66
2022-12-25T14:10:56.979Z,99157.94
2022-12-25T14:14:05.926Z,99159.12
2022-12-25T14:17:10.507Z,99168.63
2022-12-25T14:20:37.244Z,99168.56
2022-12-25T14:23:45.421Z,99165.81
2022-12-25T14:26:47.961Z,99177.53
2022-12-25T14:29:53.205Z,99168.72
2022-12-25T14:32:56.500Z,99176.75
2022-12-25T14:35:59.571Z,99179.50
2022-12-25T14:39:05.511Z,99186.72
2022-12-25T14:42:18.233Z,99188.69
2022-12-25T14:45:25.846Z,99198.59
2022-12-25T14:48:30.746Z,99195.97
2022-12-25T14:51:35.452Z,99189.91
2022-12-25T14:54:38.533Z,99188.13
2022-12-25T14:57:41.303Z,99190.88
2022-12-25T15:00:44.650Z,99202.53
2022-12-25T15:03:49.235Z,99201.75
2022-12-25T15:07:24.421Z,99202.72
2022-12-25T15:13:50.374Z,99206.53
2022-12-25T15:16:55.782Z,99196.78
2022-12-25T15:20:00.323Z,99199.47
2022-12-25T15:23:19.368Z,99197.69
2022-12-25T15:26:23.501Z,99193.28
2022-12-25T15:29:59.717Z,99202.31
2022-12-25T15:32:49.094Z,99202.38
2022-12-25T15:35:52.001Z,99199.69
2022-12-25T15:38:55.299Z,99195.25
2022-12-25T15:42:12.967Z,99190.81
2022-12-25T15:45:27.073Z,99191.75
2022-12-25T15:48:29.903Z,99196.13
2022-12-25T15:51:33.427Z,99200.66
2022-12-25T15:54:36.065Z,99203.38
2022-12-25T15:57:41.823Z,99201.63
2022-12-25T16:00:44.565Z,99199.84
2022-12-25T16:03:47.801Z,99204.41
2022-12-25T16:06:50.610Z,99195.50
2022-12-25T16:09:53.549Z,99191.06
2022-12-25T16:12:56.064Z,99194.63
2022-12-25T16:15:59.082Z,99199.16
2022-12-25T16:19:01.717Z,99193.78
2022-12-25T16:22:14.290Z,99185.94
2022-12-25T16:25:19.377Z,99185.87
2022-12-25T16:28:22.237Z,99185.03
2022-12-25T16:31:25.534Z,99191.22
2022-12-25T16:34:28.625Z,99185.03
2022-12-25T16:37:31.241Z,99192.25
2022-12-25T16:40:34.319Z,99187.84
2022-12-25T16:43:37.287Z,99182.50
2022-12-25T16:46:40.623Z,99182.53
2022-12-25T16:49:43.318Z,99187.03
2022-12-25T16:52:46.161Z,99177.25
2022-12-25T16:55:48.667Z,99177.31
2022-12-25T16:58:51.971Z,99169.22
2022-12-25T17:01:54.707Z,99173.75
2022-12-25T17:04:58.272Z,99175.56
2022-12-25T17:08:01.062Z,99172.94
2022-12-25T17:11:05.062Z,99175.66
2022-12-25T17:14:07.906Z,99173.97
2022-12-25T17:17:10.800Z,99169.59
2022-12-25T17:20:13.477Z,99165.31
2022-12-25T17:23:16.245Z,99162.69
2022-12-25T17:26:18.859Z,99167.22
2022-12-25T17:29:22.573Z,99164.63
2022-12-25T17:32:25.580Z,99170.81
2022-12-25T17:35:29.265Z,99170.81
2022-12-25T17:38:33.412Z,99172.63
2022-12-25T17:41:36.522Z,99174.34
2022-12-25T17:44:39.176Z,99163.66
2022-12-25T17:47:42.044Z,99157.44
2022-12-25T17:50:47.358Z,99156.50
2022-12-25T17:53:52.800Z,99148.47
2022-12-25T17:56:58.363Z,99144.00
2022-12-25T18:00:01.573Z,99144.97
2022-12-25T18:03:11.529Z,99146.84
2022-12-25T18:06:17.854Z,99144.22
2022-12-25T18:09:20.394Z,99149.72
2022-12-25T18:12:23.295Z,99155.16
2022-12-25T18:15:25.849Z,99149.84
2022-12-25T18:18:29.205Z,99147.19
2022-12-25T18:21:32.053Z,99146.34
2022-12-25T18:24:35.127Z,99141.09
2022-12-25T18:27:37.842Z,99164.31
2022-12-25T18:30:42.243Z,99167.94
2022-12-25T18:33:45.930Z,99184.94
2022-12-25T18:36:49.050Z,99180.53
2022-12-25T18:39:51.674Z,99179.69
2022-12-25T18:43:01.096Z,99161.06
2022-12-25T18:46:06.426Z,99170.91
2022-12-25T18:49:11.012Z,99159.41
2022-12-25T18:52:48.867Z,99155.91
2022-12-25T18:55:40.491Z,99147.94
2022-12-25T18:58:43.900Z,99165.81
2022-12-25T19:01:46.886Z,99149.84
2022-12-25T19:04:49.843Z,99140.09
2022-12-25T19:07:52.693Z,99143.69
2022-12-25T19:10:55.285Z,99133.06
2022-12-25T19:13:58.791Z,99126.00
2022-12-25T19:17:01.407Z,99136.69
2022-12-25T19:20:06.104Z,99135.81
2022-12-25T19:23:09.488Z,99136.72
2022-12-25T19:26:12.517Z,99106.56
2022-12-25T19:29:15.687Z,99128.78
2022-12-25T19:32:18.479Z,99127.00
2022-12-25T19:35:21.195Z,99127.00
2022-12-25T19:38:24.255Z,99126.06
2022-12-25T19:41:27.037Z,99141.19
2022-12-25T19:44:30.149Z,99128.72
2022-12-25T19:47:32.765Z,99120.75
2022-12-25T19:50:35.742Z,99132.31
2022-12-25T19:53:38.892Z,99134.13
2022-12-25T19:56:42.901Z,99127.06
2022-12-25T19:59:45.577Z,99122.59
2022-12-25T20:02:48.540Z,99127.06
2022-12-25T20:05:52.468Z,99118.22
2022-12-25T20:08:57.491Z,99115.44
2022-12-25T20:12:00.383Z,99117.87
2022-12-25T20:15:03.300Z,99099.31
2022-12-25T20:18:06.464Z,99092.25
2022-12-25T20:21:14.090Z,99081.69
2022-12-25T20:24:16.920Z,99056.03
2022-12-25T20:27:19.825Z,99049.81
2022-12-25T20:30:22.690Z,99066.69
2022-12-25T20:33:25.241Z,99075.59
2022-12-25T20:36:32.776Z,99072.06
2022-12-25T20:39:38.960Z,99085.44
2022-12-25T20:42:43.285Z,99086.31
2022-12-25T20:45:46.064Z,99090.78
2022-12-25T20:48:48.890Z,99084.59
2022-12-25T20:51:51.433Z,99075.72
2022-12-25T20:54:54.283Z,99081.06
2022-12-25T20:57:56.810Z,99081.22
2022-12-25T21:00:59.818Z,99083.81
2022-12-25T21:04:02.909Z,99082.06
2022-12-25T21:07:06.037Z,99074.94
2022-12-25T21:10:09.071Z,99068.81
2022-12-25T21:13:11.979Z,99071.41
2022-12-25T21:16:17.314Z,99069.63
2022-12-25T21:19:20.209Z,99074.09
2022-12-25T21:22:22.816Z,99075.00
2022-12-25T21:25:27.041Z,99076.81
2022-12-25T21:28:30.241Z,99079.47
2022-12-25T21:31:56.311Z,99088.38
2022-12-25T21:34:58.866Z,99085.72
2022-12-25T21:38:01.725Z,99075.09
2022-12-25T21:41:06.919Z,99086.66
2022-12-25T21:44:11.076Z,99089.31
2022-12-25T21:47:13.621Z,99081.38
2022-12-25T21:50:39.181Z,99084.03
2022-12-25T21:53:42.050Z,99084.94
2022-12-25T21:56:47.312Z,99082.31
2022-12-25T21:59:49.873Z,99095.66
2022-12-25T22:02:52.761Z,99081.47
2022-12-25T22:06:21.418Z,99070.81
2022-12-25T22:09:24.797Z,99070.81
2022-12-25T22:12:46.448Z,99075.28
2022-12-25T22:16:07.538Z,99068.19
2022-12-25T22:19:28.943Z,99075.28
2022-12-25T22:22:31.840Z,99082.41
2022-12-25T22:25:34.658Z,99064.69
2022-12-25T22:28:37.307Z,99060.22
2022-12-25T22:31:46.482Z,99056.69
2022-12-25T22:34:49.634Z,99063.81
2022-12-25T22:37:54.005Z,99024.06
2022-12-25T22:40:56.844Z,99076.28
2022-12-25T22:44:17.039Z,99081.63
2022-12-25T22:47:20.598Z,99084.28
2022-12-25T22:50:23.541Z,99064.81
2022-12-25T22:53:26.207Z,99072.81
2022-12-25T22:56:29.119Z,99065.69
2022-12-25T22:59:32.958Z,99065.72
2022-12-25T23:02:36.003Z,99059.53
2022-12-25T23:05:38.887Z,99069.28
2022-12-25T23:08:41.747Z,99072.00
2022-12-25T23:11:45.290Z,99051.66
2022-12-25T23:14:48.135Z,99069.34
2022-12-25T23:18:09.400Z,99072.03
2022-12-25T23:21:35.597Z,99070.28
2022-12-25T23:24:56.703Z,99066.75
2022-12-25T23:27:59.592Z,99053.47
2022-12-25T23:31:02.618Z,99055.22
2022-12-25T23:34:06.574Z,99061.47
2022-12-25T23:37:10.568Z,99056.16
2022-12-25T23:40:13.518Z,99042.84
2022-12-25T23:43:16.227Z,99037.56
2022-12-25T23:46:19.901Z,99024.25
2022-12-25T23:49:23.934Z,99025.13
2022-12-25T23:52:26.788Z,99029.59
2022-12-25T23:55:29.573Z,99031.34
2022-12-25T23:58:32.571Z,99034.91
